Time;durP1;ratioP1;P1;durP2;ratioP2;P2;SDS_P1;SDS_P2;PMS_P1;PMS_P2;Temp;Humidity;BMP_temperature;BMP_pressure;BME280_temperature;BME280_humidity;BME280_pressure;Samples;Min_cycle;Max_cycle;Signal;HPM_P1;HPM_P2
2022/12/06 00:00:29;;;;;;;5.82;2.95;;;;;;;;;;5025057;28;20446;-75
2022/12/06 00:02:55;;;;;;;5.28;2.95;;;;;;;;;;5025096;28;20025;-74
2022/12/06 00:05:22;;;;;;;8.55;3.13;;;;;;;;;;5028407;28;20029;-76
2022/12/06 00:07:48;;;;;;;4.75;2.67;;;;;;;;;;5024911;28;20130;-75
2022/12/06 00:10:15;;;;;;;3.42;2.33;;;;;;;;;;5013136;28;20022;-75
2022/12/06 00:12:41;;;;;;;4.65;2.33;;;;;;;;;;5024591;28;20026;-75
2022/12/06 00:15:07;;;;;;;2.70;2.20;;;;;;;;;;5012700;28;20025;-76
2022/12/06 00:17:33;;;;;;;5.30;2.33;;;;;;;;;;5028180;28;20071;-75
2022/12/06 00:19:59;;;;;;;3.58;2.55;;;;;;;;;;5016301;28;20030;-75
2022/12/06 00:22:26;;;;;;;3.85;2.65;;;;;;;;;;5027211;28;20112;-75
2022/12/06 00:24:52;;;;;;;2.88;2.15;;;;;;;;;;5018348;28;20489;-76
2022/12/06 00:27:18;;;;;;;4.07;2.20;;;;;;;;;;5038376;28;20489;-75
2022/12/06 00:29:44;;;;;;;6.82;2.80;;;;;;;;;;5013527;28;20033;-74
2022/12/06 00:32:10;;;;;;;6.50;3.08;;;;;;;;;;5033493;28;20029;-75
2022/12/06 00:34:36;;;;;;;2.60;2.15;;;;;;;;;;5026898;28;20032;-75
2022/12/06 00:37:02;;;;;;;6.45;2.45;;;;;;;;;;5037020;28;20087;-75
2022/12/06 00:39:28;;;;;;;2.45;2.10;;;;;;;;;;5027025;28;20496;-75
2022/12/06 00:41:55;;;;;;;2.40;1.88;;;;;;;;;;5017339;28;20034;-75
2022/12/06 00:44:21;;;;;;;2.25;1.80;;;;;;;;;;5027773;28;20021;-76
2022/12/06 00:46:47;;;;;;;2.05;1.50;;;;;;;;;;5010250;28;20029;-75
2022/12/06 00:49:13;;;;;;;2.13;1.50;;;;;;;;;;5030681;28;20026;-76
2022/12/06 00:51:40;;;;;;;3.00;1.80;;;;;;;;;;5027265;28;20088;-76
2022/12/06 00:54:06;;;;;;;2.28;1.70;;;;;;;;;;5028612;28;20060;-76
2022/12/06 00:56:34;;;;;;;2.45;1.77;;;;;;;;;;5033571;28;20087;-75
2022/12/06 00:59:00;;;;;;;9.07;3.17;;;;;;;;;;5036393;28;20034;-75
2022/12/06 01:01:28;;;;;;;3.78;1.80;;;;;;;;;;5028715;28;20113;-75
2022/12/06 01:03:58;;;;;;;3.38;2.20;;;;;;;;;;5025726;28;20036;-75
2022/12/06 01:06:29;;;;;;;2.42;1.70;;;;;;;;;;5030208;28;20041;-75
2022/12/06 01:08:56;;;;;;;2.33;1.77;;;;;;;;;;5030654;28;20021;-75
2022/12/06 01:11:23;;;;;;;3.72;1.58;;;;;;;;;;5028629;28;20493;-75
2022/12/06 01:13:50;;;;;;;2.40;1.65;;;;;;;;;;5041160;28;20114;-75
2022/12/06 01:16:18;;;;;;;6.18;2.08;;;;;;;;;;5014097;28;20026;-75
2022/12/06 01:18:45;;;;;;;3.33;1.88;;;;;;;;;;5010458;28;20136;-75
2022/12/06 01:21:12;;;;;;;7.35;2.03;;;;;;;;;;5028783;28;20049;-75
2022/12/06 01:23:39;;;;;;;2.53;1.80;;;;;;;;;;5013686;28;20534;-76
2022/12/06 01:26:06;;;;;;;3.05;1.90;;;;;;;;;;5021713;28;20029;-75
2022/12/06 01:28:32;;;;;;;5.95;2.17;;;;;;;;;;5027806;28;20083;-75
2022/12/06 01:30:58;;;;;;;4.25;1.98;;;;;;;;;;5025979;28;20033;-75
2022/12/06 01:33:25;;;;;;;2.75;1.90;;;;;;;;;;5021998;28;20025;-76
2022/12/06 01:35:51;;;;;;;2.58;2.13;;;;;;;;;;5005892;28;20022;-75
2022/12/06 01:38:17;;;;;;;3.50;2.10;;;;;;;;;;5018507;28;20425;-75
2022/12/06 01:40:45;;;;;;;2.33;2.13;;;;;;;;;;5028263;28;20065;-75
2022/12/06 01:43:32;;;;;;;4.30;2.00;;;;;;;;;;5020664;28;20044;-75
2022/12/06 01:46:01;;;;;;;2.97;2.10;;;;;;;;;;5031085;28;20065;-75
2022/12/06 01:48:27;;;;;;;2.65;2.17;;;;;;;;;;5028654;28;20056;-75
2022/12/06 01:50:55;;;;;;;3.58;2.13;;;;;;;;;;5015334;28;20030;-78
2022/12/06 01:53:21;;;;;;;3.65;2.13;;;;;;;;;;5022770;28;20006;-75
2022/12/06 01:55:48;;;;;;;3.28;1.98;;;;;;;;;;5006693;28;20419;-75
2022/12/06 01:58:16;;;;;;;4.82;2.10;;;;;;;;;;5033009;28;20045;-75
2022/12/06 02:00:43;;;;;;;2.75;1.90;;;;;;;;;;5024430;28;20032;-75
2022/12/06 02:03:13;;;;;;;2.00;1.80;;;;;;;;;;5029679;28;20033;-75
2022/12/06 02:05:40;;;;;;;3.35;2.00;;;;;;;;;;5018164;28;20211;-75
2022/12/06 02:08:08;;;;;;;2.67;2.13;;;;;;;;;;5017242;28;20022;-75
2022/12/06 02:10:34;;;;;;;4.65;2.20;;;;;;;;;;5030996;28;20025;-75
2022/12/06 02:13:00;;;;;;;7.07;2.80;;;;;;;;;;5022638;28;20013;-75
2022/12/06 02:15:40;;;;;;;5.20;2.30;;;;;;;;;;5030465;28;20052;-75
2022/12/06 02:18:12;;;;;;;7.15;2.15;;;;;;;;;;5010726;28;20041;-76
2022/12/06 02:20:51;;;;;;;6.13;3.08;;;;;;;;;;5030997;28;20120;-75
2022/12/06 02:23:50;;;;;;;5.55;2.30;;;;;;;;;;5033016;28;20036;-76
2022/12/06 02:26:19;;;;;;;3.38;2.40;;;;;;;;;;5007466;28;20520;-76
2022/12/06 02:29:04;;;;;;;3.00;2.13;;;;;;;;;;5042198;28;20025;-74
2022/12/06 02:31:30;;;;;;;6.18;1.95;;;;;;;;;;5028251;28;20581;-75
2022/12/06 02:34:02;;;;;;;6.00;2.80;;;;;;;;;;5035457;28;20375;-75
2022/12/06 02:36:34;;;;;;;2.47;2.00;;;;;;;;;;5012119;28;20035;-75
2022/12/06 02:39:07;;;;;;;6.60;2.50;;;;;;;;;;5035036;28;20537;-75
2022/12/06 02:41:38;;;;;;;4.35;1.85;;;;;;;;;;5008671;28;20659;-76
2022/12/06 02:44:05;;;;;;;5.15;2.10;;;;;;;;;;5025119;28;20552;-75
2022/12/06 02:46:33;;;;;;;4.47;2.30;;;;;;;;;;5024441;28;20033;-75
2022/12/06 02:49:01;;;;;;;5.65;2.17;;;;;;;;;;5025021;28;20044;-75
2022/12/06 02:51:29;;;;;;;3.22;2.17;;;;;;;;;;5011352;28;20067;-75
2022/12/06 02:53:57;;;;;;;8.00;2.30;;;;;;;;;;5002712;28;20105;-75
2022/12/06 02:56:24;;;;;;;3.80;2.10;;;;;;;;;;5011430;28;20087;-75
2022/12/06 02:58:50;;;;;;;2.35;2.15;;;;;;;;;;5028542;28;20085;-75
2022/12/06 03:01:16;;;;;;;3.78;1.90;;;;;;;;;;5031962;28;20032;-75
2022/12/06 03:03:49;;;;;;;3.60;2.13;;;;;;;;;;5019202;28;20116;-75
2022/12/06 03:06:26;;;;;;;4.78;2.22;;;;;;;;;;5028330;28;20108;-75
2022/12/06 03:08:58;;;;;;;3.38;2.08;;;;;;;;;;5018610;28;20762;-75
2022/12/06 03:11:26;;;;;;;3.60;1.95;;;;;;;;;;5028364;28;20041;-75
2022/12/06 03:13:52;;;;;;;5.53;2.20;;;;;;;;;;5017729;28;20095;-75
2022/12/06 03:16:29;;;;;;;4.28;2.15;;;;;;;;;;5007680;28;20045;-75
2022/12/06 03:18:58;;;;;;;6.78;2.20;;;;;;;;;;5016166;28;20006;-75
2022/12/06 03:21:32;;;;;;;3.65;1.80;;;;;;;;;;5025231;28;20100;-75
2022/12/06 03:23:58;;;;;;;3.70;2.15;;;;;;;;;;5033443;28;20096;-75
2022/12/06 03:26:26;;;;;;;3.03;2.28;;;;;;;;;;5030203;28;20033;-75
2022/12/06 03:28:53;;;;;;;3.90;2.15;;;;;;;;;;5031708;28;20036;-75
2022/12/06 03:31:21;;;;;;;4.97;2.30;;;;;;;;;;5023133;28;20559;-75
2022/12/06 03:33:59;;;;;;;3.13;1.88;;;;;;;;;;5027589;28;20013;-75
2022/12/06 03:36:26;;;;;;;6.38;2.42;;;;;;;;;;5028122;28;20053;-75
2022/12/06 03:38:59;;;;;;;3.05;1.80;;;;;;;;;;5029485;28;20040;-75
2022/12/06 03:41:28;;;;;;;2.42;1.98;;;;;;;;;;5025925;28;20604;-75
2022/12/06 03:43:54;;;;;;;5.20;3.03;;;;;;;;;;5030295;28;20172;-75
2022/12/06 03:46:26;;;;;;;3.20;1.90;;;;;;;;;;5031255;28;20099;-75
2022/12/06 03:48:55;;;;;;;3.50;2.20;;;;;;;;;;5024264;28;20699;-75
2022/12/06 03:51:23;;;;;;;2.20;2.00;;;;;;;;;;5029485;28;20382;-75
2022/12/06 03:53:52;;;;;;;3.15;2.72;;;;;;;;;;5001737;28;20025;-75
2022/12/06 03:56:18;;;;;;;2.85;1.98;;;;;;;;;;5026060;28;20025;-75
2022/12/06 03:58:44;;;;;;;5.65;2.33;;;;;;;;;;5036392;28;20054;-75
2022/12/06 04:01:11;;;;;;;7.47;2.47;;;;;;;;;;5027134;28;20033;-75
2022/12/06 04:03:37;;;;;;;5.82;2.80;;;;;;;;;;5014001;28;20025;-75
2022/12/06 04:06:07;;;;;;;5.88;2.30;;;;;;;;;;5025657;28;20087;-75
2022/12/06 04:08:33;;;;;;;4.50;2.30;;;;;;;;;;5026314;28;20130;-75
2022/12/06 04:10:59;;;;;;;4.45;2.13;;;;;;;;;;5014192;28;20030;-75
2022/12/06 04:13:25;;;;;;;4.93;2.53;;;;;;;;;;5026357;28;20049;-75
2022/12/06 04:15:55;;;;;;;4.63;2.40;;;;;;;;;;5026826;28;20029;-75
2022/12/06 04:18:21;;;;;;;5.70;2.60;;;;;;;;;;5012697;28;20114;-75
2022/12/06 04:23:43;;;;;;;3.33;2.40;;;;;;;;;;5039298;28;20124;-75
2022/12/06 04:26:11;;;;;;;6.53;2.50;;;;;;;;;;5027394;28;20048;-75
2022/12/06 04:39:36;;;;;;;4.00;2.47;;;;;;;;;;5031812;28;20394;-75
2022/12/06 04:44:48;;;;;;;4.65;2.25;;;;;;;;;;5015019;28;20083;-75
2022/12/06 04:47:14;;;;;;;4.85;2.53;;;;;;;;;;5029856;28;20029;-76
2022/12/06 04:49:40;;;;;;;2.83;2.20;;;;;;;;;;5028304;28;20002;-75
2022/12/06 04:52:07;;;;;;;3.30;2.05;;;;;;;;;;5030633;28;20021;-74
2022/12/06 04:54:33;;;;;;;3.30;2.00;;;;;;;;;;5010723;28;20021;-75
2022/12/06 04:56:59;;;;;;;4.50;1.90;;;;;;;;;;5012593;28;20060;-75
2022/12/06 04:59:27;;;;;;;3.72;2.70;;;;;;;;;;5009095;28;20033;-75
2022/12/06 05:01:53;;;;;;;2.25;1.70;;;;;;;;;;5021140;28;20029;-75
2022/12/06 05:04:20;;;;;;;3.85;2.00;;;;;;;;;;5024862;28;20022;-76
2022/12/06 05:06:46;;;;;;;4.20;2.05;;;;;;;;;;5002669;28;20033;-75
2022/12/06 05:09:12;;;;;;;4.60;2.50;;;;;;;;;;5028105;28;20040;-74
2022/12/06 05:11:38;;;;;;;6.82;2.58;;;;;;;;;;5029606;28;20029;-75
2022/12/06 05:14:04;;;;;;;4.50;2.20;;;;;;;;;;5028102;28;20109;-75
2022/12/06 05:16:31;;;;;;;4.18;2.30;;;;;;;;;;5021647;28;20538;-75
2022/12/06 05:18:57;;;;;;;2.05;1.85;;;;;;;;;;5006400;28;20034;-75
2022/12/06 05:21:24;;;;;;;2.90;2.33;;;;;;;;;;5030075;28;20036;-74
2022/12/06 05:23:52;;;;;;;3.55;2.40;;;;;;;;;;5013188;28;20060;-75
2022/12/06 05:26:19;;;;;;;3.65;2.30;;;;;;;;;;5020601;28;20083;-75
2022/12/06 05:28:46;;;;;;;3.80;2.20;;;;;;;;;;5026435;28;20049;-75
2022/12/06 05:31:12;;;;;;;2.97;2.15;;;;;;;;;;5026533;28;20021;-75
2022/12/06 05:33:39;;;;;;;4.15;2.00;;;;;;;;;;5028295;28;20394;-75
2022/12/06 05:36:13;;;;;;;3.33;2.00;;;;;;;;;;5005202;28;20032;-75
2022/12/06 05:38:39;;;;;;;3.78;2.17;;;;;;;;;;5028032;28;20029;-77
2022/12/06 05:41:06;;;;;;;2.65;1.90;;;;;;;;;;5027732;28;20029;-75
2022/12/06 05:43:32;;;;;;;4.22;2.00;;;;;;;;;;5024767;28;20516;-75
2022/12/06 05:45:58;;;;;;;3.47;1.83;;;;;;;;;;5029513;28;20032;-75
2022/12/06 05:48:24;;;;;;;2.53;2.00;;;;;;;;;;5014194;28;20167;-75
2022/12/06 05:50:50;;;;;;;2.22;2.00;;;;;;;;;;5033081;28;20036;-75
2022/12/06 05:53:17;;;;;;;4.28;1.90;;;;;;;;;;5015920;28;20017;-75
2022/12/06 05:55:43;;;;;;;4.60;2.10;;;;;;;;;;5031510;28;20026;-75
2022/12/06 05:58:10;;;;;;;4.07;2.05;;;;;;;;;;5029134;28;20064;-76
2022/12/06 06:00:36;;;;;;;3.17;2.92;;;;;;;;;;5029059;28;20478;-75
2022/12/06 06:03:02;;;;;;;3.80;2.00;;;;;;;;;;5025215;28;20548;-74
2022/12/06 06:05:29;;;;;;;2.65;1.80;;;;;;;;;;5031220;28;20490;-75
2022/12/06 06:07:55;;;;;;;3.47;2.42;;;;;;;;;;5029750;28;20036;-76
2022/12/06 06:10:22;;;;;;;3.20;2.13;;;;;;;;;;5026085;28;20108;-74
2022/12/06 06:12:48;;;;;;;5.80;2.10;;;;;;;;;;5028367;28;20080;-75
2022/12/06 06:15:14;;;;;;;4.20;2.15;;;;;;;;;;5028021;28;20037;-75
2022/12/06 06:17:42;;;;;;;5.95;2.05;;;;;;;;;;5012292;28;20074;-75
2022/12/06 06:20:08;;;;;;;7.85;2.53;;;;;;;;;;5032351;28;20409;-75
2022/12/06 06:22:36;;;;;;;6.25;2.28;;;;;;;;;;5021414;28;20055;-76
2022/12/06 06:25:02;;;;;;;3.05;2.35;;;;;;;;;;5028916;28;20025;-75
2022/12/06 06:27:31;;;;;;;3.25;2.38;;;;;;;;;;5023401;28;20106;-75
2022/12/06 06:29:57;;;;;;;6.90;2.42;;;;;;;;;;5027711;28;20025;-75
2022/12/06 06:32:23;;;;;;;4.40;2.25;;;;;;;;;;5024769;28;20045;-75
2022/12/06 06:34:49;;;;;;;4.47;2.13;;;;;;;;;;5029885;28;20541;-76
2022/12/06 06:37:16;;;;;;;3.22;2.15;;;;;;;;;;5015034;28;20029;-75
2022/12/06 06:39:42;;;;;;;5.50;1.90;;;;;;;;;;5026355;28;20041;-75
2022/12/06 06:42:08;;;;;;;2.85;2.00;;;;;;;;;;5012518;28;20036;-75
2022/12/06 06:44:34;;;;;;;3.03;2.10;;;;;;;;;;5027517;28;20105;-73
2022/12/06 06:47:00;;;;;;;3.70;2.10;;;;;;;;;;5024910;28;20033;-75
2022/12/06 06:49:26;;;;;;;2.58;2.00;;;;;;;;;;5025504;28;20394;-75
2022/12/06 06:51:52;;;;;;;2.33;1.88;;;;;;;;;;5023564;28;20022;-74
2022/12/06 06:54:18;;;;;;;4.50;2.00;;;;;;;;;;5025474;28;20036;-75
2022/12/06 06:56:44;;;;;;;5.72;2.42;;;;;;;;;;5021091;28;20030;-74
2022/12/06 06:59:10;;;;;;;3.17;2.10;;;;;;;;;;5026468;28;20037;-74
2022/12/06 07:01:37;;;;;;;5.15;1.98;;;;;;;;;;5028224;28;20492;-75
2022/12/06 07:04:03;;;;;;;2.20;1.90;;;;;;;;;;5027017;28;20021;-75
2022/12/06 07:06:29;;;;;;;2.15;1.88;;;;;;;;;;5026521;28;20415;-75
2022/12/06 07:08:55;;;;;;;2.88;1.92;;;;;;;;;;5030043;28;20032;-74
2022/12/06 07:11:22;;;;;;;3.05;1.98;;;;;;;;;;5026052;28;20044;-75
2022/12/06 07:13:48;;;;;;;4.47;1.98;;;;;;;;;;5014058;28;20762;-75
2022/12/06 07:16:16;;;;;;;4.30;2.10;;;;;;;;;;5028225;28;20090;-75
2022/12/06 07:18:42;;;;;;;2.95;2.10;;;;;;;;;;5021059;28;20030;-76
2022/12/06 07:21:10;;;;;;;4.72;1.90;;;;;;;;;;5026381;28;20075;-75
2022/12/06 07:23:37;;;;;;;4.75;1.70;;;;;;;;;;5028085;28;20034;-77
2022/12/06 07:26:05;;;;;;;4.40;1.50;;;;;;;;;;5012843;28;20017;-75
2022/12/06 07:28:32;;;;;;;3.95;2.22;;;;;;;;;;5009503;28;20044;-75
2022/12/06 07:30:58;;;;;;;1.83;1.60;;;;;;;;;;5027355;28;20016;-75
2022/12/06 07:33:24;;;;;;;2.63;1.90;;;;;;;;;;5024235;28;20027;-74
2022/12/06 07:35:52;;;;;;;5.80;2.65;;;;;;;;;;5005905;28;20037;-76
2022/12/06 07:38:18;;;;;;;3.63;2.10;;;;;;;;;;5006163;28;20033;-74
2022/12/06 07:40:44;;;;;;;3.75;1.98;;;;;;;;;;5028281;28;20081;-75
2022/12/06 07:45:55;;;;;;;3.80;1.92;;;;;;;;;;5027161;28;20040;-76
2022/12/06 07:48:21;;;;;;;4.10;1.88;;;;;;;;;;5034162;28;20363;-75
2022/12/06 07:50:47;;;;;;;2.90;1.88;;;;;;;;;;5029433;28;20104;-76
2022/12/06 07:53:13;;;;;;;2.42;1.63;;;;;;;;;;5031059;28;20455;-76
2022/12/06 07:55:40;;;;;;;1.80;1.70;;;;;;;;;;5029936;28;20025;-76
2022/12/06 07:58:06;;;;;;;3.35;1.98;;;;;;;;;;5010889;28;20137;-76
2022/12/06 08:00:32;;;;;;;2.72;2.13;;;;;;;;;;5008376;28;20095;-75
2022/12/06 08:02:58;;;;;;;2.65;2.00;;;;;;;;;;5002648;28;20034;-76
2022/12/06 08:05:24;;;;;;;3.17;2.08;;;;;;;;;;5020449;28;20083;-75
2022/12/06 08:07:50;;;;;;;2.30;1.90;;;;;;;;;;5020569;28;20033;-75
2022/12/06 08:10:16;;;;;;;3.00;1.98;;;;;;;;;;5006223;28;20075;-75
2022/12/06 08:12:43;;;;;;;3.80;2.25;;;;;;;;;;5025786;28;20120;-75
2022/12/06 08:15:11;;;;;;;3.95;1.80;;;;;;;;;;5023646;28;20021;-75
2022/12/06 08:17:39;;;;;;;4.82;2.00;;;;;;;;;;5025903;28;20067;-75
2022/12/06 08:20:06;;;;;;;5.75;2.15;;;;;;;;;;5023761;28;20761;-76
2022/12/06 08:22:32;;;;;;;2.25;1.80;;;;;;;;;;5024841;28;20040;-75
2022/12/06 08:24:58;;;;;;;6.05;2.40;;;;;;;;;;5005627;28;20069;-74
2022/12/06 08:27:25;;;;;;;2.30;1.75;;;;;;;;;;5019917;28;20034;-75
2022/12/06 08:29:51;;;;;;;3.03;2.00;;;;;;;;;;5020245;28;20751;-75
2022/12/06 08:32:17;;;;;;;3.85;2.33;;;;;;;;;;5022326;28;20374;-75
2022/12/06 08:34:43;;;;;;;3.55;1.92;;;;;;;;;;5014033;28;20037;-75
2022/12/06 08:37:10;;;;;;;5.03;2.20;;;;;;;;;;5020496;28;20066;-75
2022/12/06 08:39:36;;;;;;;3.08;1.85;;;;;;;;;;5019895;28;20088;-75
2022/12/06 08:42:05;;;;;;;7.30;2.60;;;;;;;;;;5023794;28;20541;-75
2022/12/06 08:44:31;;;;;;;2.10;1.70;;;;;;;;;;5020310;28;20470;-75
2022/12/06 08:46:58;;;;;;;4.40;2.10;;;;;;;;;;5024879;28;20037;-74
2022/12/06 08:49:25;;;;;;;2.75;2.00;;;;;;;;;;5021652;28;20438;-75
2022/12/06 08:51:51;;;;;;;4.47;2.50;;;;;;;;;;5023807;28;20026;-77
2022/12/06 08:54:19;;;;;;;2.65;1.95;;;;;;;;;;5025850;28;20044;-77
2022/12/06 08:56:45;;;;;;;4.35;2.30;;;;;;;;;;5016644;28;20030;-77
2022/12/06 08:59:11;;;;;;;2.90;2.00;;;;;;;;;;5021405;28;20088;-77
2022/12/06 09:01:37;;;;;;;4.32;2.20;;;;;;;;;;5011355;28;20429;-77
2022/12/06 09:04:04;;;;;;;2.55;1.95;;;;;;;;;;5011381;28;20060;-75
2022/12/06 09:06:30;;;;;;;3.22;1.95;;;;;;;;;;5022103;28;20030;-75
2022/12/06 09:08:57;;;;;;;3.63;2.20;;;;;;;;;;5017937;28;20044;-75
2022/12/06 09:11:23;;;;;;;2.92;2.30;;;;;;;;;;5020718;28;20045;-74
2022/12/06 09:13:49;;;;;;;4.82;2.40;;;;;;;;;;5028823;28;20029;-74
2022/12/06 09:16:16;;;;;;;7.97;2.10;;;;;;;;;;5030948;28;20017;-75
2022/12/06 09:18:43;;;;;;;2.72;2.15;;;;;;;;;;5028529;28;20695;-75
2022/12/06 09:21:11;;;;;;;4.97;2.83;;;;;;;;;;5028857;28;20068;-75
2022/12/06 09:23:37;;;;;;;2.92;1.88;;;;;;;;;;5011419;28;20029;-75
2022/12/06 09:26:04;;;;;;;5.88;2.25;;;;;;;;;;5025437;28;20057;-74
2022/12/06 09:28:31;;;;;;;2.22;2.03;;;;;;;;;;5013130;28;20860;-76
2022/12/06 09:30:57;;;;;;;4.00;2.78;;;;;;;;;;5027431;28;20121;-75
2022/12/06 09:33:24;;;;;;;2.55;2.08;;;;;;;;;;5024238;28;20032;-74
2022/12/06 09:35:51;;;;;;;3.45;2.17;;;;;;;;;;5026836;28;20045;-74
2022/12/06 09:38:18;;;;;;;3.38;2.33;;;;;;;;;;5004985;28;20076;-75
2022/12/06 09:40:50;;;;;;;3.00;1.80;;;;;;;;;;5027661;28;20029;-75
2022/12/06 09:43:35;;;;;;;2.35;1.90;;;;;;;;;;5026067;28;20021;-75
2022/12/06 09:46:04;;;;;;;3.00;2.13;;;;;;;;;;5023506;28;20034;-77
2022/12/06 09:48:30;;;;;;;2.65;1.90;;;;;;;;;;5027906;28;20029;-75
2022/12/06 09:51:12;;;;;;;2.80;2.20;;;;;;;;;;5028527;28;20071;-75
2022/12/06 09:54:10;;;;;;;3.25;2.25;;;;;;;;;;5026470;28;20105;-75
2022/12/06 09:56:45;;;;;;;3.13;2.05;;;;;;;;;;4995929;28;20046;-75
2022/12/06 09:59:19;;;;;;;3.08;2.03;;;;;;;;;;5025419;28;20044;-76
2022/12/06 10:02:02;;;;;;;2.58;2.08;;;;;;;;;;5028953;28;20029;-75
2022/12/06 10:04:47;;;;;;;3.75;2.00;;;;;;;;;;5020264;28;20421;-76
2022/12/06 10:07:19;;;;;;;2.10;1.80;;;;;;;;;;5025633;28;20057;-75
2022/12/06 10:09:54;;;;;;;2.47;1.95;;;;;;;;;;5022393;28;20021;-75
2022/12/06 10:12:28;;;;;;;2.20;1.80;;;;;;;;;;5011233;28;20438;-75
2022/12/06 10:15:06;;;;;;;1.88;1.70;;;;;;;;;;5020960;28;20029;-75
2022/12/06 10:17:41;;;;;;;2.28;2.00;;;;;;;;;;5025609;28;20030;-76
2022/12/06 10:20:07;;;;;;;2.72;2.45;;;;;;;;;;5031759;28;20032;-74
2022/12/06 10:22:33;;;;;;;3.45;1.95;;;;;;;;;;5036903;28;20029;-75
2022/12/06 10:25:03;;;;;;;5.10;1.90;;;;;;;;;;5023673;28;20030;-74
2022/12/06 10:27:49;;;;;;;2.00;1.80;;;;;;;;;;5014490;28;20029;-75
2022/12/06 10:30:16;;;;;;;4.55;2.10;;;;;;;;;;5025681;28;20096;-75
2022/12/06 10:33:04;;;;;;;5.13;2.17;;;;;;;;;;5013259;28;20041;-75
2022/12/06 10:35:41;;;;;;;2.47;1.80;;;;;;;;;;5018696;28;20060;-75
2022/12/06 10:38:25;;;;;;;2.88;1.80;;;;;;;;;;5018341;28;20116;-74
2022/12/06 10:40:56;;;;;;;2.63;1.88;;;;;;;;;;5023810;28;20576;-74
2022/12/06 10:43:22;;;;;;;2.17;1.80;;;;;;;;;;5026670;28;20137;-74
2022/12/06 10:48:43;;;;;;;1.83;1.70;;;;;;;;;;5029911;28;20545;-75
2022/12/06 10:51:12;;;;;;;2.03;1.83;;;;;;;;;;5029655;28;20025;-75
2022/12/06 10:53:41;;;;;;;2.33;1.90;;;;;;;;;;5027139;28;20018;-77
2022/12/06 10:56:16;;;;;;;2.17;1.90;;;;;;;;;;5007615;28;20026;-75
2022/12/06 10:58:48;;;;;;;2.72;2.08;;;;;;;;;;5026479;28;20045;-75
2022/12/06 11:01:20;;;;;;;3.67;2.40;;;;;;;;;;5014042;28;20025;-75
2022/12/06 11:04:03;;;;;;;3.47;2.72;;;;;;;;;;5029287;28;20374;-75
2022/12/06 11:06:44;;;;;;;2.38;2.17;;;;;;;;;;5025388;28;20053;-76
2022/12/06 11:09:30;;;;;;;4.65;2.10;;;;;;;;;;5026650;28;20021;-75
2022/12/06 11:11:57;;;;;;;1.73;1.63;;;;;;;;;;5027857;28;20470;-78
2022/12/06 11:14:32;;;;;;;2.53;1.77;;;;;;;;;;5009704;28;20029;-76
2022/12/06 11:16:58;;;;;;;1.70;1.60;;;;;;;;;;5026550;28;20028;-77
2022/12/06 11:19:36;;;;;;;2.72;1.90;;;;;;;;;;5008949;28;20043;-76
2022/12/06 11:22:14;;;;;;;2.80;1.80;;;;;;;;;;5010607;28;20044;-76
2022/12/06 11:25:05;;;;;;;1.60;1.50;;;;;;;;;;5012869;28;20025;-75
2022/12/06 11:27:38;;;;;;;1.75;1.63;;;;;;;;;;5027199;28;20116;-75
2022/12/06 11:30:12;;;;;;;2.13;1.65;;;;;;;;;;5027611;28;20148;-75
2022/12/06 11:32:38;;;;;;;2.33;1.85;;;;;;;;;;5027076;28;20505;-75
2022/12/06 11:35:04;;;;;;;3.88;1.92;;;;;;;;;;5008647;28;20021;-75
2022/12/06 11:37:33;;;;;;;2.58;1.75;;;;;;;;;;5031351;28;20029;-75
2022/12/06 11:40:06;;;;;;;2.00;1.80;;;;;;;;;;5010525;28;20500;-75
2022/12/06 11:42:32;;;;;;;2.17;2.00;;;;;;;;;;5028335;28;20512;-75
2022/12/06 11:45:08;;;;;;;3.35;2.05;;;;;;;;;;5006715;28;20170;-74
2022/12/06 11:47:34;;;;;;;2.17;1.75;;;;;;;;;;5025621;28;20025;-75
2022/12/06 11:50:01;;;;;;;4.85;2.20;;;;;;;;;;5028123;28;20211;-75
2022/12/06 11:52:30;;;;;;;2.50;2.03;;;;;;;;;;5010596;28;20036;-74
2022/12/06 11:54:58;;;;;;;5.07;2.50;;;;;;;;;;5024373;28;20033;-74
2022/12/06 11:57:45;;;;;;;3.38;1.90;;;;;;;;;;5024944;28;20422;-75
2022/12/06 12:00:21;;;;;;;2.85;2.33;;;;;;;;;;5026131;28;20060;-75
2022/12/06 12:02:48;;;;;;;2.70;1.90;;;;;;;;;;5024175;28;20087;-75
2022/12/06 12:05:24;;;;;;;4.93;2.42;;;;;;;;;;5025469;28;20036;-74
2022/12/06 12:08:07;;;;;;;3.92;2.90;;;;;;;;;;5025123;28;20088;-75
2022/12/06 12:10:37;;;;;;;4.47;2.10;;;;;;;;;;5005707;28;20029;-75
2022/12/06 12:16:17;;;;;;;3.88;2.65;;;;;;;;;;5025471;28;21298;-75
2022/12/06 12:18:51;;;;;;;4.05;2.67;;;;;;;;;;5026435;28;20037;-75
2022/12/06 12:21:28;;;;;;;6.40;2.38;;;;;;;;;;5024132;28;20087;-75
2022/12/06 12:23:55;;;;;;;4.15;2.30;;;;;;;;;;5025298;28;21337;-76
2022/12/06 12:26:21;;;;;;;3.85;2.30;;;;;;;;;;5025444;28;20033;-74
2022/12/06 12:29:03;;;;;;;3.67;3.03;;;;;;;;;;5023373;28;20053;-75
2022/12/06 12:31:29;;;;;;;5.10;2.83;;;;;;;;;;5022427;28;20034;-75
2022/12/06 12:34:16;;;;;;;4.78;2.40;;;;;;;;;;5004677;28;21015;-75
2022/12/06 12:36:47;;;;;;;3.90;2.80;;;;;;;;;;5016486;28;20553;-76
2022/12/06 12:39:22;;;;;;;3.75;3.08;;;;;;;;;;5024549;28;20017;-76
2022/12/06 12:41:48;;;;;;;;;;;;;;;;;;5022388;28;20075;-74
2022/12/06 12:44:14;;;;;;;;;;;;;;;;;;5021369;28;19964;-73
2022/12/06 12:46:44;;;;;;;3.72;2.53;;;;;;;;;;5021008;28;19913;-75
2022/12/06 12:49:21;;;;;;;2.72;2.15;;;;;;;;;;5025317;28;20061;-75
2022/12/06 12:51:47;;;;;;;6.60;3.05;;;;;;;;;;5029175;28;20056;-75
2022/12/06 12:54:22;;;;;;;3.80;2.50;;;;;;;;;;5009245;28;20037;-75
2022/12/06 12:56:48;;;;;;;2.17;1.98;;;;;;;;;;5026571;28;20583;-75
2022/12/06 12:59:19;;;;;;;2.78;2.40;;;;;;;;;;5029000;28;20017;-75
2022/12/06 13:01:45;;;;;;;3.33;2.58;;;;;;;;;;5027431;28;20034;-75
2022/12/06 13:04:26;;;;;;;2.80;2.35;;;;;;;;;;5031158;28;20025;-74
2022/12/06 13:07:08;;;;;;;3.33;2.28;;;;;;;;;;5027062;28;20029;-74
2022/12/06 13:09:37;;;;;;;5.57;2.70;;;;;;;;;;5025495;28;20080;-76
2022/12/06 13:12:05;;;;;;;4.15;2.90;;;;;;;;;;5025040;28;20024;-75
2022/12/06 13:14:32;;;;;;;4.18;2.50;;;;;;;;;;5023085;28;20100;-74
2022/12/06 13:17:00;;;;;;;3.33;2.78;;;;;;;;;;5008856;28;20040;-76
2022/12/06 13:19:35;;;;;;;3.80;2.60;;;;;;;;;;5025770;28;20035;-75
2022/12/06 13:22:02;;;;;;;4.15;2.85;;;;;;;;;;5030225;28;20573;-75
2022/12/06 13:24:30;;;;;;;5.63;2.67;;;;;;;;;;5028093;28;20026;-75
2022/12/06 13:27:01;;;;;;;5.15;3.17;;;;;;;;;;5024306;28;21114;-75
2022/12/06 13:29:33;;;;;;;4.93;3.25;;;;;;;;;;5026687;28;20144;-75
2022/12/06 13:32:03;;;;;;;4.30;2.78;;;;;;;;;;5026481;28;20033;-75
2022/12/06 13:34:32;;;;;;;4.00;2.88;;;;;;;;;;5009900;28;20032;-75
2022/12/06 13:36:58;;;;;;;3.88;2.78;;;;;;;;;;5030338;28;20032;-75
2022/12/06 13:39:29;;;;;;;5.47;2.78;;;;;;;;;;5027835;28;20113;-75
2022/12/06 13:44:42;;;;;;;3.42;2.80;;;;;;;;;;5023149;28;20091;-75
2022/12/06 13:47:27;;;;;;;7.43;3.22;;;;;;;;;;5026735;28;20044;-75
2022/12/06 13:49:54;;;;;;;3.45;2.75;;;;;;;;;;5025970;28;20029;-75
2022/12/06 13:52:43;;;;;;;5.95;3.20;;;;;;;;;;5011395;28;20104;-75
2022/12/06 13:55:24;;;;;;;5.68;3.80;;;;;;;;;;5018469;28;20041;-75
2022/12/06 13:58:00;;;;;;;3.40;3.05;;;;;;;;;;5024065;28;20047;-75
2022/12/06 14:00:29;;;;;;;6.05;4.25;;;;;;;;;;5006603;28;20041;-74
2022/12/06 14:02:55;;;;;;;4.00;3.10;;;;;;;;;;5000430;28;21424;-76
2022/12/06 14:05:40;;;;;;;5.53;2.90;;;;;;;;;;5001165;28;20029;-77
2022/12/06 14:08:09;;;;;;;3.03;2.60;;;;;;;;;;5005510;28;20040;-75
2022/12/06 14:10:35;;;;;;;4.47;2.90;;;;;;;;;;5002501;28;20119;-75
2022/12/06 14:13:03;;;;;;;5.40;3.30;;;;;;;;;;5006360;28;20026;-75
2022/12/06 14:15:29;;;;;;;5.70;3.20;;;;;;;;;;5004946;28;20073;-74
2022/12/06 14:17:55;;;;;;;3.25;2.70;;;;;;;;;;5000482;28;20033;-75
2022/12/06 14:20:26;;;;;;;5.97;3.03;;;;;;;;;;5002959;28;20053;-75
2022/12/06 14:22:53;;;;;;;3.97;2.90;;;;;;;;;;5004445;28;20068;-75
2022/12/06 14:25:21;;;;;;;5.43;3.05;;;;;;;;;;5003788;28;20439;-75
2022/12/06 14:27:48;;;;;;;7.72;3.47;;;;;;;;;;5018008;28;20130;-75
2022/12/06 14:30:14;;;;;;;4.90;3.90;;;;;;;;;;5004736;28;20092;-75
2022/12/06 14:32:42;;;;;;;4.78;3.72;;;;;;;;;;5006838;28;20030;-75
2022/12/06 14:35:16;;;;;;;4.18;2.97;;;;;;;;;;5004949;28;20136;-75
2022/12/06 14:37:50;;;;;;;4.53;3.22;;;;;;;;;;5018129;28;20042;-77
2022/12/06 14:40:24;;;;;;;6.80;3.42;;;;;;;;;;5003957;28;20046;-75
2022/12/06 14:43:00;;;;;;;4.60;3.38;;;;;;;;;;5005553;28;20026;-76
2022/12/06 14:45:28;;;;;;;3.03;2.67;;;;;;;;;;5019197;28;20076;-75
2022/12/06 14:47:54;;;;;;;3.63;2.95;;;;;;;;;;5006554;28;20036;-76
2022/12/06 14:50:28;;;;;;;4.65;3.28;;;;;;;;;;5005226;28;20176;-76
2022/12/06 14:53:00;;;;;;;5.05;2.55;;;;;;;;;;5004195;28;20032;-76
2022/12/06 14:55:28;;;;;;;3.05;2.30;;;;;;;;;;5006725;28;20034;-75
2022/12/06 14:57:58;;;;;;;2.67;2.20;;;;;;;;;;5003195;28;20046;-75
2022/12/06 15:00:36;;;;;;;3.47;2.40;;;;;;;;;;5003383;28;20129;-76
2022/12/06 15:03:21;;;;;;;3.40;2.30;;;;;;;;;;5020286;28;20908;-75
2022/12/06 15:05:48;;;;;;;5.45;2.70;;;;;;;;;;5005361;28;20025;-76
2022/12/06 15:08:27;;;;;;;3.08;2.45;;;;;;;;;;5004468;28;20045;-76
2022/12/06 15:11:03;;;;;;;6.35;2.72;;;;;;;;;;5003422;28;20032;-76
2022/12/06 15:13:30;;;;;;;3.58;3.00;;;;;;;;;;5018850;28;20029;-75
2022/12/06 15:16:22;;;;;;;3.83;3.22;;;;;;;;;;5007055;28;20022;-75
2022/12/06 15:18:56;;;;;;;4.70;3.10;;;;;;;;;;5000101;28;20057;-74
2022/12/06 15:21:22;;;;;;;6.03;3.50;;;;;;;;;;5022547;28;20109;-76
2022/12/06 15:23:52;;;;;;;4.50;3.38;;;;;;;;;;5005698;28;20093;-76